sensor_id;sensor_type;location;lat;lon;timestamp;P1;durP1;ratioP1;P2;durP2;ratioP2
56667;SDS011;42542;48.360;10.958;2023-06-10T00:02:26;13.43;;;8.00;;
56667;SDS011;42542;48.360;10.958;2023-06-10T00:05:29;13.98;;;8.18;;
56667;SDS011;42542;48.360;10.958;2023-06-10T00:08:31;15.02;;;8.00;;
56667;SDS011;42542;48.360;10.958;2023-06-10T00:11:34;12.55;;;7.90;;
56667;SDS011;42542;48.360;10.958;2023-06-10T00:14:38;12.70;;;7.95;;
56667;SDS011;42542;48.360;10.958;2023-06-10T00:17:42;14.40;;;8.30;;
56667;SDS011;42542;48.360;10.958;2023-06-10T00:20:44;12.63;;;8.00;;
56667;SDS011;42542;48.360;10.958;2023-06-10T00:23:46;13.75;;;8.23;;
56667;SDS011;42542;48.360;10.958;2023-06-10T00:26:48;12.95;;;7.90;;
56667;SDS011;42542;48.360;10.958;2023-06-10T00:29:50;12.65;;;8.10;;
56667;SDS011;42542;48.360;10.958;2023-06-10T00:32:51;12.67;;;8.00;;
56667;SDS011;42542;48.360;10.958;2023-06-10T00:35:53;12.95;;;7.70;;
56667;SDS011;42542;48.360;10.958;2023-06-10T00:38:56;14.05;;;8.00;;
56667;SDS011;42542;48.360;10.958;2023-06-10T00:41:58;14.48;;;8.40;;
56667;SDS011;42542;48.360;10.958;2023-06-10T00:45:01;13.82;;;8.30;;
56667;SDS011;42542;48.360;10.958;2023-06-10T00:48:03;15.20;;;8.43;;
56667;SDS011;42542;48.360;10.958;2023-06-10T00:51:06;14.70;;;8.43;;
56667;SDS011;42542;48.360;10.958;2023-06-10T00:54:10;14.00;;;8.52;;
56667;SDS011;42542;48.360;10.958;2023-06-10T00:57:15;13.38;;;8.15;;
56667;SDS011;42542;48.360;10.958;2023-06-10T01:00:17;14.02;;;8.32;;
56667;SDS011;42542;48.360;10.958;2023-06-10T01:03:19;13.33;;;8.00;;
56667;SDS011;42542;48.360;10.958;2023-06-10T01:06:27;15.00;;;8.30;;
56667;SDS011;42542;48.360;10.958;2023-06-10T01:09:37;14.23;;;8.13;;
56667;SDS011;42542;48.360;10.958;2023-06-10T01:13:00;15.10;;;8.57;;
56667;SDS011;42542;48.360;10.958;2023-06-10T01:16:04;14.02;;;8.10;;
56667;SDS011;42542;48.360;10.958;2023-06-10T01:19:07;14.27;;;8.30;;
56667;SDS011;42542;48.360;10.958;2023-06-10T01:22:09;15.10;;;8.35;;
56667;SDS011;42542;48.360;10.958;2023-06-10T01:25:11;14.07;;;8.18;;
56667;SDS011;42542;48.360;10.958;2023-06-10T01:28:22;15.00;;;8.35;;
56667;SDS011;42542;48.360;10.958;2023-06-10T01:34:40;13.57;;;7.87;;
56667;SDS011;42542;48.360;10.958;2023-06-10T01:37:45;17.52;;;8.32;;
56667;SDS011;42542;48.360;10.958;2023-06-10T01:40:49;13.25;;;8.07;;
56667;SDS011;42542;48.360;10.958;2023-06-10T01:43:54;15.77;;;8.80;;
56667;SDS011;42542;48.360;10.958;2023-06-10T01:46:57;15.05;;;8.40;;
56667;SDS011;42542;48.360;10.958;2023-06-10T01:49:59;14.47;;;8.77;;
56667;SDS011;42542;48.360;10.958;2023-06-10T01:53:02;14.75;;;8.20;;
56667;SDS011;42542;48.360;10.958;2023-06-10T01:56:05;15.00;;;8.50;;
56667;SDS011;42542;48.360;10.958;2023-06-10T01:59:07;14.25;;;8.63;;
56667;SDS011;42542;48.360;10.958;2023-06-10T02:02:09;14.13;;;8.15;;
56667;SDS011;42542;48.360;10.958;2023-06-10T02:05:12;15.77;;;8.57;;
56667;SDS011;42542;48.360;10.958;2023-06-10T02:08:16;13.68;;;8.18;;
56667;SDS011;42542;48.360;10.958;2023-06-10T02:11:19;15.52;;;8.40;;
56667;SDS011;42542;48.360;10.958;2023-06-10T02:14:21;15.35;;;8.82;;
56667;SDS011;42542;48.360;10.958;2023-06-10T02:17:23;15.73;;;8.82;;
56667;SDS011;42542;48.360;10.958;2023-06-10T02:20:25;15.10;;;8.70;;
56667;SDS011;42542;48.360;10.958;2023-06-10T02:23:27;14.50;;;8.20;;
56667;SDS011;42542;48.360;10.958;2023-06-10T02:26:28;16.02;;;8.50;;
56667;SDS011;42542;48.360;10.958;2023-06-10T02:29:34;17.10;;;8.55;;
56667;SDS011;42542;48.360;10.958;2023-06-10T02:32:36;14.82;;;8.60;;
56667;SDS011;42542;48.360;10.958;2023-06-10T02:35:40;14.83;;;8.57;;
56667;SDS011;42542;48.360;10.958;2023-06-10T02:38:42;15.02;;;8.00;;
56667;SDS011;42542;48.360;10.958;2023-06-10T02:41:45;14.82;;;8.60;;
56667;SDS011;42542;48.360;10.958;2023-06-10T02:44:47;14.82;;;8.70;;
56667;SDS011;42542;48.360;10.958;2023-06-10T02:47:57;14.93;;;8.43;;
56667;SDS011;42542;48.360;10.958;2023-06-10T02:50:59;14.70;;;8.20;;
56667;SDS011;42542;48.360;10.958;2023-06-10T02:54:08;14.85;;;8.48;;
56667;SDS011;42542;48.360;10.958;2023-06-10T02:57:10;14.77;;;8.68;;
56667;SDS011;42542;48.360;10.958;2023-06-10T03:00:12;15.95;;;9.10;;
56667;SDS011;42542;48.360;10.958;2023-06-10T03:03:18;16.77;;;9.18;;
56667;SDS011;42542;48.360;10.958;2023-06-10T03:06:32;16.47;;;8.63;;
56667;SDS011;42542;48.360;10.958;2023-06-10T03:09:48;15.23;;;8.63;;
56667;SDS011;42542;48.360;10.958;2023-06-10T03:12:51;15.60;;;9.07;;
56667;SDS011;42542;48.360;10.958;2023-06-10T03:15:54;15.45;;;9.30;;
56667;SDS011;42542;48.360;10.958;2023-06-10T03:19:00;15.27;;;8.60;;
56667;SDS011;42542;48.360;10.958;2023-06-10T03:25:44;16.35;;;8.20;;
56667;SDS011;42542;48.360;10.958;2023-06-10T03:28:50;15.35;;;9.02;;
56667;SDS011;42542;48.360;10.958;2023-06-10T03:31:55;16.50;;;9.05;;
56667;SDS011;42542;48.360;10.958;2023-06-10T03:34:59;17.27;;;9.17;;
56667;SDS011;42542;48.360;10.958;2023-06-10T03:38:03;16.70;;;8.80;;
56667;SDS011;42542;48.360;10.958;2023-06-10T03:41:06;15.68;;;8.75;;
56667;SDS011;42542;48.360;10.958;2023-06-10T03:44:08;16.75;;;8.73;;
56667;SDS011;42542;48.360;10.958;2023-06-10T03:47:11;15.48;;;8.65;;
56667;SDS011;42542;48.360;10.958;2023-06-10T03:50:14;15.63;;;8.47;;
56667;SDS011;42542;48.360;10.958;2023-06-10T03:53:19;15.70;;;8.75;;
56667;SDS011;42542;48.360;10.958;2023-06-10T03:56:21;18.52;;;9.52;;
56667;SDS011;42542;48.360;10.958;2023-06-10T03:59:24;17.00;;;8.57;;
56667;SDS011;42542;48.360;10.958;2023-06-10T04:02:28;17.53;;;8.67;;
56667;SDS011;42542;48.360;10.958;2023-06-10T04:05:31;15.80;;;8.75;;
56667;SDS011;42542;48.360;10.958;2023-06-10T04:08:33;14.57;;;8.02;;
56667;SDS011;42542;48.360;10.958;2023-06-10T04:11:35;15.65;;;8.50;;
56667;SDS011;42542;48.360;10.958;2023-06-10T04:14:38;14.40;;;8.33;;
56667;SDS011;42542;48.360;10.958;2023-06-10T04:17:43;15.38;;;8.40;;
56667;SDS011;42542;48.360;10.958;2023-06-10T04:20:46;16.70;;;8.80;;
56667;SDS011;42542;48.360;10.958;2023-06-10T04:23:48;15.68;;;8.60;;
56667;SDS011;42542;48.360;10.958;2023-06-10T04:26:51;14.63;;;8.00;;
56667;SDS011;42542;48.360;10.958;2023-06-10T04:29:54;15.98;;;8.27;;
56667;SDS011;42542;48.360;10.958;2023-06-10T04:32:56;14.98;;;8.05;;
56667;SDS011;42542;48.360;10.958;2023-06-10T04:36:00;13.85;;;7.55;;
56667;SDS011;42542;48.360;10.958;2023-06-10T04:39:04;16.40;;;8.50;;
56667;SDS011;42542;48.360;10.958;2023-06-10T04:42:09;17.00;;;8.45;;
56667;SDS011;42542;48.360;10.958;2023-06-10T04:45:12;14.70;;;7.93;;
56667;SDS011;42542;48.360;10.958;2023-06-10T04:48:15;15.45;;;8.27;;
56667;SDS011;42542;48.360;10.958;2023-06-10T04:51:17;16.95;;;8.40;;
56667;SDS011;42542;48.360;10.958;2023-06-10T04:54:19;17.00;;;8.40;;
56667;SDS011;42542;48.360;10.958;2023-06-10T04:57:20;14.25;;;7.85;;
56667;SDS011;42542;48.360;10.958;2023-06-10T05:00:23;15.00;;;8.52;;
56667;SDS011;42542;48.360;10.958;2023-06-10T05:03:25;15.43;;;8.30;;
56667;SDS011;42542;48.360;10.958;2023-06-10T05:06:28;14.70;;;8.23;;
56667;SDS011;42542;48.360;10.958;2023-06-10T05:09:30;14.90;;;8.70;;
56667;SDS011;42542;48.360;10.958;2023-06-10T05:12:32;15.85;;;8.65;;
56667;SDS011;42542;48.360;10.958;2023-06-10T05:15:33;13.90;;;7.78;;
56667;SDS011;42542;48.360;10.958;2023-06-10T05:18:35;13.85;;;7.90;;
56667;SDS011;42542;48.360;10.958;2023-06-10T05:21:38;14.80;;;8.17;;
56667;SDS011;42542;48.360;10.958;2023-06-10T05:24:40;13.80;;;7.75;;
56667;SDS011;42542;48.360;10.958;2023-06-10T05:27:43;13.93;;;7.70;;
56667;SDS011;42542;48.360;10.958;2023-06-10T05:30:45;13.02;;;7.22;;
56667;SDS011;42542;48.360;10.958;2023-06-10T05:33:47;13.87;;;8.00;;
56667;SDS011;42542;48.360;10.958;2023-06-10T05:36:49;13.95;;;7.68;;
56667;SDS011;42542;48.360;10.958;2023-06-10T05:39:51;15.43;;;8.00;;
56667;SDS011;42542;48.360;10.958;2023-06-10T05:42:57;15.75;;;7.50;;
56667;SDS011;42542;48.360;10.958;2023-06-10T05:45:59;13.90;;;7.57;;
56667;SDS011;42542;48.360;10.958;2023-06-10T05:49:02;13.60;;;7.47;;
56667;SDS011;42542;48.360;10.958;2023-06-10T05:52:04;12.38;;;7.00;;
56667;SDS011;42542;48.360;10.958;2023-06-10T05:55:06;12.73;;;7.32;;
56667;SDS011;42542;48.360;10.958;2023-06-10T05:58:09;14.45;;;7.72;;
56667;SDS011;42542;48.360;10.958;2023-06-10T06:01:13;13.75;;;7.68;;
56667;SDS011;42542;48.360;10.958;2023-06-10T06:04:16;13.60;;;7.60;;
56667;SDS011;42542;48.360;10.958;2023-06-10T06:07:23;13.70;;;7.78;;
56667;SDS011;42542;48.360;10.958;2023-06-10T06:10:29;14.50;;;8.10;;
56667;SDS011;42542;48.360;10.958;2023-06-10T06:13:31;14.48;;;7.78;;
56667;SDS011;42542;48.360;10.958;2023-06-10T06:16:33;14.63;;;8.35;;
56667;SDS011;42542;48.360;10.958;2023-06-10T06:19:35;15.50;;;8.27;;
56667;SDS011;42542;48.360;10.958;2023-06-10T06:22:37;15.65;;;8.20;;
56667;SDS011;42542;48.360;10.958;2023-06-10T06:25:39;16.15;;;8.57;;
56667;SDS011;42542;48.360;10.958;2023-06-10T06:28:42;16.33;;;8.30;;
56667;SDS011;42542;48.360;10.958;2023-06-10T06:31:43;15.00;;;8.55;;
56667;SDS011;42542;48.360;10.958;2023-06-10T06:34:45;17.00;;;8.90;;
56667;SDS011;42542;48.360;10.958;2023-06-10T06:37:47;13.48;;;8.05;;
56667;SDS011;42542;48.360;10.958;2023-06-10T06:40:54;15.63;;;8.63;;
56667;SDS011;42542;48.360;10.958;2023-06-10T06:43:56;14.32;;;7.90;;
56667;SDS011;42542;48.360;10.958;2023-06-10T06:46:59;13.07;;;7.57;;
56667;SDS011;42542;48.360;10.958;2023-06-10T06:50:01;13.97;;;7.80;;
56667;SDS011;42542;48.360;10.958;2023-06-10T06:53:04;13.27;;;7.57;;
56667;SDS011;42542;48.360;10.958;2023-06-10T06:56:06;13.60;;;7.53;;
56667;SDS011;42542;48.360;10.958;2023-06-10T06:59:09;15.23;;;8.32;;
56667;SDS011;42542;48.360;10.958;2023-06-10T07:02:11;12.25;;;6.90;;
56667;SDS011;42542;48.360;10.958;2023-06-10T07:05:15;12.43;;;7.10;;
56667;SDS011;42542;48.360;10.958;2023-06-10T07:08:16;13.55;;;7.05;;
56667;SDS011;42542;48.360;10.958;2023-06-10T07:11:19;12.40;;;7.45;;
56667;SDS011;42542;48.360;10.958;2023-06-10T07:14:21;13.18;;;7.18;;
56667;SDS011;42542;48.360;10.958;2023-06-10T07:17:23;11.90;;;6.95;;
56667;SDS011;42542;48.360;10.958;2023-06-10T07:20:25;13.50;;;7.13;;
56667;SDS011;42542;48.360;10.958;2023-06-10T07:23:28;11.65;;;6.93;;
56667;SDS011;42542;48.360;10.958;2023-06-10T07:26:31;13.57;;;7.18;;
56667;SDS011;42542;48.360;10.958;2023-06-10T07:29:33;11.35;;;6.72;;
56667;SDS011;42542;48.360;10.958;2023-06-10T07:32:37;12.40;;;6.95;;
56667;SDS011;42542;48.360;10.958;2023-06-10T07:35:39;13.30;;;6.90;;
56667;SDS011;42542;48.360;10.958;2023-06-10T07:38:41;14.73;;;7.32;;
56667;SDS011;42542;48.360;10.958;2023-06-10T07:41:43;12.30;;;7.18;;
56667;SDS011;42542;48.360;10.958;2023-06-10T07:44:45;10.93;;;6.28;;
56667;SDS011;42542;48.360;10.958;2023-06-10T07:47:47;13.32;;;7.28;;
56667;SDS011;42542;48.360;10.958;2023-06-10T07:50:48;12.13;;;7.00;;
56667;SDS011;42542;48.360;10.958;2023-06-10T07:53:50;11.57;;;6.50;;
56667;SDS011;42542;48.360;10.958;2023-06-10T07:56:52;13.27;;;6.88;;
56667;SDS011;42542;48.360;10.958;2023-06-10T07:59:55;13.85;;;6.78;;
56667;SDS011;42542;48.360;10.958;2023-06-10T08:02:59;11.32;;;6.05;;
56667;SDS011;42542;48.360;10.958;2023-06-10T08:06:02;12.27;;;6.40;;
56667;SDS011;42542;48.360;10.958;2023-06-10T08:09:03;10.60;;;6.13;;
56667;SDS011;42542;48.360;10.958;2023-06-10T08:12:06;10.70;;;5.95;;
56667;SDS011;42542;48.360;10.958;2023-06-10T08:15:12;11.18;;;5.90;;
56667;SDS011;42542;48.360;10.958;2023-06-10T08:18:14;11.25;;;6.13;;
56667;SDS011;42542;48.360;10.958;2023-06-10T08:21:16;12.50;;;6.13;;
56667;SDS011;42542;48.360;10.958;2023-06-10T08:24:19;9.90;;;5.97;;
56667;SDS011;42542;48.360;10.958;2023-06-10T08:27:21;9.70;;;5.65;;
56667;SDS011;42542;48.360;10.958;2023-06-10T08:30:23;9.38;;;5.53;;
56667;SDS011;42542;48.360;10.958;2023-06-10T08:33:26;9.75;;;5.60;;
56667;SDS011;42542;48.360;10.958;2023-06-10T08:36:28;10.23;;;5.60;;
56667;SDS011;42542;48.360;10.958;2023-06-10T08:39:30;10.77;;;5.57;;
56667;SDS011;42542;48.360;10.958;2023-06-10T08:42:45;10.60;;;5.70;;
56667;SDS011;42542;48.360;10.958;2023-06-10T08:45:51;9.95;;;5.32;;
56667;SDS011;42542;48.360;10.958;2023-06-10T08:49:03;10.50;;;5.55;;
56667;SDS011;42542;48.360;10.958;2023-06-10T08:52:08;8.77;;;5.17;;
56667;SDS011;42542;48.360;10.958;2023-06-10T08:55:21;9.43;;;5.20;;
56667;SDS011;42542;48.360;10.958;2023-06-10T08:58:32;8.98;;;5.10;;
56667;SDS011;42542;48.360;10.958;2023-06-10T09:01:36;9.45;;;5.00;;
56667;SDS011;42542;48.360;10.958;2023-06-10T09:04:40;8.98;;;5.25;;
56667;SDS011;42542;48.360;10.958;2023-06-10T09:07:45;10.63;;;5.33;;
56667;SDS011;42542;48.360;10.958;2023-06-10T09:10:48;10.47;;;5.53;;
56667;SDS011;42542;48.360;10.958;2023-06-10T09:13:51;8.60;;;4.97;;
56667;SDS011;42542;48.360;10.958;2023-06-10T09:16:53;8.55;;;4.90;;
56667;SDS011;42542;48.360;10.958;2023-06-10T09:19:59;9.23;;;5.20;;
56667;SDS011;42542;48.360;10.958;2023-06-10T09:23:01;16.90;;;5.40;;
56667;SDS011;42542;48.360;10.958;2023-06-10T09:26:07;9.47;;;5.80;;
56667;SDS011;42542;48.360;10.958;2023-06-10T09:29:11;9.05;;;5.22;;
56667;SDS011;42542;48.360;10.958;2023-06-10T09:32:13;9.57;;;5.50;;
56667;SDS011;42542;48.360;10.958;2023-06-10T09:35:16;9.15;;;5.38;;
56667;SDS011;42542;48.360;10.958;2023-06-10T09:38:21;8.47;;;5.07;;
56667;SDS011;42542;48.360;10.958;2023-06-10T09:41:34;8.80;;;5.17;;
56667;SDS011;42542;48.360;10.958;2023-06-10T09:44:37;9.35;;;5.15;;
56667;SDS011;42542;48.360;10.958;2023-06-10T09:47:40;9.90;;;5.63;;
56667;SDS011;42542;48.360;10.958;2023-06-10T09:50:43;9.25;;;4.95;;
56667;SDS011;42542;48.360;10.958;2023-06-10T09:53:52;10.37;;;5.23;;
56667;SDS011;42542;48.360;10.958;2023-06-10T09:56:56;8.47;;;4.90;;
56667;SDS011;42542;48.360;10.958;2023-06-10T10:00:04;8.95;;;5.10;;
56667;SDS011;42542;48.360;10.958;2023-06-10T10:03:14;9.20;;;5.20;;
56667;SDS011;42542;48.360;10.958;2023-06-10T10:06:25;9.75;;;5.25;;
56667;SDS011;42542;48.360;10.958;2023-06-10T10:09:27;8.80;;;4.83;;
56667;SDS011;42542;48.360;10.958;2023-06-10T10:12:30;9.47;;;5.30;;
56667;SDS011;42542;48.360;10.958;2023-06-10T10:15:32;8.57;;;4.88;;
56667;SDS011;42542;48.360;10.958;2023-06-10T10:18:39;7.80;;;4.40;;
56667;SDS011;42542;48.360;10.958;2023-06-10T10:21:45;7.68;;;4.65;;
56667;SDS011;42542;48.360;10.958;2023-06-10T10:24:59;8.37;;;4.87;;
56667;SDS011;42542;48.360;10.958;2023-06-10T10:28:08;8.67;;;5.13;;
56667;SDS011;42542;48.360;10.958;2023-06-10T10:31:14;9.75;;;5.30;;
56667;SDS011;42542;48.360;10.958;2023-06-10T10:34:19;8.23;;;4.80;;
56667;SDS011;42542;48.360;10.958;2023-06-10T10:37:53;9.52;;;5.28;;
56667;SDS011;42542;48.360;10.958;2023-06-10T10:40:56;8.33;;;4.90;;
56667;SDS011;42542;48.360;10.958;2023-06-10T10:44:01;9.60;;;4.90;;
56667;SDS011;42542;48.360;10.958;2023-06-10T10:47:06;9.45;;;5.10;;
56667;SDS011;42542;48.360;10.958;2023-06-10T10:50:15;8.57;;;5.25;;
56667;SDS011;42542;48.360;10.958;2023-06-10T10:53:19;9.65;;;5.30;;
56667;SDS011;42542;48.360;10.958;2023-06-10T10:56:22;10.43;;;5.47;;
56667;SDS011;42542;48.360;10.958;2023-06-10T10:59:51;8.53;;;5.10;;
56667;SDS011;42542;48.360;10.958;2023-06-10T11:06:12;8.50;;;4.90;;
56667;SDS011;42542;48.360;10.958;2023-06-10T11:09:25;12.23;;;4.85;;
56667;SDS011;42542;48.360;10.958;2023-06-10T11:12:50;8.50;;;5.13;;
56667;SDS011;42542;48.360;10.958;2023-06-10T11:15:57;8.93;;;5.40;;
56667;SDS011;42542;48.360;10.958;2023-06-10T11:18:59;8.93;;;5.30;;
56667;SDS011;42542;48.360;10.958;2023-06-10T11:22:03;8.98;;;5.20;;
56667;SDS011;42542;48.360;10.958;2023-06-10T11:25:13;9.43;;;5.47;;
56667;SDS011;42542;48.360;10.958;2023-06-10T11:28:18;9.20;;;5.17;;
56667;SDS011;42542;48.360;10.958;2023-06-10T11:31:21;9.20;;;5.43;;
56667;SDS011;42542;48.360;10.958;2023-06-10T11:34:24;8.90;;;5.32;;
56667;SDS011;42542;48.360;10.958;2023-06-10T11:37:29;8.93;;;5.60;;
56667;SDS011;42542;48.360;10.958;2023-06-10T11:40:31;8.25;;;5.10;;
56667;SDS011;42542;48.360;10.958;2023-06-10T11:43:33;8.93;;;5.13;;
56667;SDS011;42542;48.360;10.958;2023-06-10T11:46:36;10.33;;;5.87;;
56667;SDS011;42542;48.360;10.958;2023-06-10T11:49:38;9.35;;;5.50;;
56667;SDS011;42542;48.360;10.958;2023-06-10T11:52:44;8.15;;;5.15;;
56667;SDS011;42542;48.360;10.958;2023-06-10T11:55:47;11.25;;;5.72;;
56667;SDS011;42542;48.360;10.958;2023-06-10T11:59:08;8.77;;;5.43;;
56667;SDS011;42542;48.360;10.958;2023-06-10T12:02:16;9.90;;;5.77;;
56667;SDS011;42542;48.360;10.958;2023-06-10T12:05:19;10.25;;;5.90;;
56667;SDS011;42542;48.360;10.958;2023-06-10T12:08:21;9.27;;;5.75;;
56667;SDS011;42542;48.360;10.958;2023-06-10T12:11:23;9.18;;;5.72;;
56667;SDS011;42542;48.360;10.958;2023-06-10T12:17:54;9.60;;;6.13;;
56667;SDS011;42542;48.360;10.958;2023-06-10T12:20:56;11.57;;;5.90;;
56667;SDS011;42542;48.360;10.958;2023-06-10T12:24:03;11.07;;;6.40;;
56667;SDS011;42542;48.360;10.958;2023-06-10T12:27:12;9.63;;;6.15;;
56667;SDS011;42542;48.360;10.958;2023-06-10T12:30:18;10.27;;;5.93;;
56667;SDS011;42542;48.360;10.958;2023-06-10T12:33:24;10.07;;;5.93;;
56667;SDS011;42542;48.360;10.958;2023-06-10T12:36:27;10.25;;;6.05;;
56667;SDS011;42542;48.360;10.958;2023-06-10T12:39:29;8.82;;;5.78;;
56667;SDS011;42542;48.360;10.958;2023-06-10T12:42:35;12.77;;;5.93;;
56667;SDS011;42542;48.360;10.958;2023-06-10T12:45:39;8.70;;;5.50;;
56667;SDS011;42542;48.360;10.958;2023-06-10T12:48:50;9.23;;;5.83;;
56667;SDS011;42542;48.360;10.958;2023-06-10T12:51:56;9.57;;;5.88;;
56667;SDS011;42542;48.360;10.958;2023-06-10T12:54:59;8.77;;;5.43;;
56667;SDS011;42542;48.360;10.958;2023-06-10T12:58:01;8.82;;;5.50;;
56667;SDS011;42542;48.360;10.958;2023-06-10T13:01:05;8.87;;;5.30;;
56667;SDS011;42542;48.360;10.958;2023-06-10T13:04:07;9.23;;;5.70;;
56667;SDS011;42542;48.360;10.958;2023-06-10T13:07:09;9.68;;;5.35;;
56667;SDS011;42542;48.360;10.958;2023-06-10T13:10:15;8.35;;;4.95;;
56667;SDS011;42542;48.360;10.958;2023-06-10T13:13:18;9.48;;;4.80;;
56667;SDS011;42542;48.360;10.958;2023-06-10T13:16:19;8.40;;;4.50;;
56667;SDS011;42542;48.360;10.958;2023-06-10T13:19:22;7.93;;;4.50;;
56667;SDS011;42542;48.360;10.958;2023-06-10T13:22:24;8.55;;;4.50;;
56667;SDS011;42542;48.360;10.958;2023-06-10T13:25:27;8.32;;;4.90;;
56667;SDS011;42542;48.360;10.958;2023-06-10T13:28:29;8.13;;;4.88;;
56667;SDS011;42542;48.360;10.958;2023-06-10T13:31:36;8.40;;;4.60;;
56667;SDS011;42542;48.360;10.958;2023-06-10T13:34:38;8.73;;;4.97;;
56667;SDS011;42542;48.360;10.958;2023-06-10T13:37:40;9.07;;;5.38;;
56667;SDS011;42542;48.360;10.958;2023-06-10T13:40:42;7.93;;;4.93;;
56667;SDS011;42542;48.360;10.958;2023-06-10T13:43:44;7.70;;;4.78;;
56667;SDS011;42542;48.360;10.958;2023-06-10T13:46:46;7.20;;;4.20;;
56667;SDS011;42542;48.360;10.958;2023-06-10T13:49:50;7.23;;;4.37;;
56667;SDS011;42542;48.360;10.958;2023-06-10T13:52:52;6.88;;;4.10;;
56667;SDS011;42542;48.360;10.958;2023-06-10T13:55:54;7.20;;;4.38;;
56667;SDS011;42542;48.360;10.958;2023-06-10T13:58:56;8.90;;;4.22;;
56667;SDS011;42542;48.360;10.958;2023-06-10T14:01:58;7.13;;;4.30;;
56667;SDS011;42542;48.360;10.958;2023-06-10T14:05:02;7.63;;;4.23;;
56667;SDS011;42542;48.360;10.958;2023-06-10T14:08:04;7.70;;;4.07;;
56667;SDS011;42542;48.360;10.958;2023-06-10T14:11:07;7.20;;;3.70;;
56667;SDS011;42542;48.360;10.958;2023-06-10T14:14:09;8.50;;;4.43;;
56667;SDS011;42542;48.360;10.958;2023-06-10T14:17:12;6.83;;;4.07;;
56667;SDS011;42542;48.360;10.958;2023-06-10T14:20:14;7.47;;;4.10;;
56667;SDS011;42542;48.360;10.958;2023-06-10T14:23:16;7.65;;;3.80;;
56667;SDS011;42542;48.360;10.958;2023-06-10T14:26:18;8.15;;;3.90;;
56667;SDS011;42542;48.360;10.958;2023-06-10T14:29:23;8.15;;;3.80;;
56667;SDS011;42542;48.360;10.958;2023-06-10T14:32:25;6.83;;;3.87;;
56667;SDS011;42542;48.360;10.958;2023-06-10T14:35:28;6.80;;;3.90;;
56667;SDS011;42542;48.360;10.958;2023-06-10T14:38:29;6.72;;;3.47;;
56667;SDS011;42542;48.360;10.958;2023-06-10T14:41:32;7.80;;;3.90;;
56667;SDS011;42542;48.360;10.958;2023-06-10T14:44:33;7.32;;;4.28;;
56667;SDS011;42542;48.360;10.958;2023-06-10T14:47:36;6.87;;;4.13;;
56667;SDS011;42542;48.360;10.958;2023-06-10T14:50:38;7.03;;;4.40;;
56667;SDS011;42542;48.360;10.958;2023-06-10T14:53:42;8.65;;;4.15;;
56667;SDS011;42542;48.360;10.958;2023-06-10T14:56:44;6.68;;;4.03;;
56667;SDS011;42542;48.360;10.958;2023-06-10T14:59:47;7.13;;;4.50;;
56667;SDS011;42542;48.360;10.958;2023-06-10T15:02:49;7.97;;;4.30;;
56667;SDS011;42542;48.360;10.958;2023-06-10T15:05:52;6.67;;;3.93;;
56667;SDS011;42542;48.360;10.958;2023-06-10T15:08:53;6.93;;;4.03;;
56667;SDS011;42542;48.360;10.958;2023-06-10T15:11:56;6.93;;;4.07;;
56667;SDS011;42542;48.360;10.958;2023-06-10T15:14:58;7.50;;;4.28;;
56667;SDS011;42542;48.360;10.958;2023-06-10T15:18:01;7.07;;;4.60;;
56667;SDS011;42542;48.360;10.958;2023-06-10T15:21:02;7.97;;;5.10;;
56667;SDS011;42542;48.360;10.958;2023-06-10T15:24:04;6.80;;;4.25;;
56667;SDS011;42542;48.360;10.958;2023-06-10T15:27:07;7.15;;;3.80;;
56667;SDS011;42542;48.360;10.958;2023-06-10T15:30:09;7.60;;;4.22;;
56667;SDS011;42542;48.360;10.958;2023-06-10T15:33:11;7.97;;;3.70;;
56667;SDS011;42542;48.360;10.958;2023-06-10T15:36:15;6.07;;;3.60;;
56667;SDS011;42542;48.360;10.958;2023-06-10T15:39:17;6.85;;;3.50;;
56667;SDS011;42542;48.360;10.958;2023-06-10T15:42:20;6.00;;;3.28;;
56667;SDS011;42542;48.360;10.958;2023-06-10T15:45:21;6.88;;;3.60;;
56667;SDS011;42542;48.360;10.958;2023-06-10T15:48:25;9.00;;;3.83;;
56667;SDS011;42542;48.360;10.958;2023-06-10T15:51:26;6.20;;;3.50;;
56667;SDS011;42542;48.360;10.958;2023-06-10T15:54:28;7.35;;;3.70;;
56667;SDS011;42542;48.360;10.958;2023-06-10T15:57:30;6.85;;;3.60;;
56667;SDS011;42542;48.360;10.958;2023-06-10T16:00:32;6.80;;;3.70;;
56667;SDS011;42542;48.360;10.958;2023-06-10T16:03:34;6.50;;;3.73;;
56667;SDS011;42542;48.360;10.958;2023-06-10T16:06:37;6.40;;;3.60;;
56667;SDS011;42542;48.360;10.958;2023-06-10T16:09:39;7.25;;;3.65;;
56667;SDS011;42542;48.360;10.958;2023-06-10T16:12:41;6.60;;;3.38;;
56667;SDS011;42542;48.360;10.958;2023-06-10T16:15:43;6.68;;;3.33;;
56667;SDS011;42542;48.360;10.958;2023-06-10T16:18:45;6.63;;;3.70;;
56667;SDS011;42542;48.360;10.958;2023-06-10T16:21:46;6.87;;;4.03;;
56667;SDS011;42542;48.360;10.958;2023-06-10T16:24:49;7.03;;;4.03;;
56667;SDS011;42542;48.360;10.958;2023-06-10T16:27:51;7.38;;;4.55;;
56667;SDS011;42542;48.360;10.958;2023-06-10T16:30:53;8.30;;;4.50;;
56667;SDS011;42542;48.360;10.958;2023-06-10T16:33:55;8.50;;;4.60;;
56667;SDS011;42542;48.360;10.958;2023-06-10T16:36:57;7.63;;;4.10;;
56667;SDS011;42542;48.360;10.958;2023-06-10T16:39:59;7.97;;;4.40;;
56667;SDS011;42542;48.360;10.958;2023-06-10T16:43:01;7.60;;;4.50;;
56667;SDS011;42542;48.360;10.958;2023-06-10T16:46:03;9.00;;;4.45;;
56667;SDS011;42542;48.360;10.958;2023-06-10T16:49:05;7.80;;;4.00;;
56667;SDS011;42542;48.360;10.958;2023-06-10T16:52:06;7.90;;;4.00;;
56667;SDS011;42542;48.360;10.958;2023-06-10T16:55:09;6.72;;;3.80;;
56667;SDS011;42542;48.360;10.958;2023-06-10T16:58:11;6.93;;;3.80;;
56667;SDS011;42542;48.360;10.958;2023-06-10T17:01:13;7.35;;;4.07;;
56667;SDS011;42542;48.360;10.958;2023-06-10T17:04:15;7.27;;;4.20;;
56667;SDS011;42542;48.360;10.958;2023-06-10T17:07:18;7.27;;;4.07;;
56667;SDS011;42542;48.360;10.958;2023-06-10T17:10:21;7.38;;;4.20;;
56667;SDS011;42542;48.360;10.958;2023-06-10T17:13:24;7.57;;;4.47;;
56667;SDS011;42542;48.360;10.958;2023-06-10T17:16:26;8.27;;;4.75;;
56667;SDS011;42542;48.360;10.958;2023-06-10T17:19:27;7.50;;;4.37;;
56667;SDS011;42542;48.360;10.958;2023-06-10T17:22:31;8.20;;;4.63;;
56667;SDS011;42542;48.360;10.958;2023-06-10T17:25:33;8.82;;;4.80;;
56667;SDS011;42542;48.360;10.958;2023-06-10T17:28:38;7.90;;;4.63;;
56667;SDS011;42542;48.360;10.958;2023-06-10T17:31:39;7.80;;;4.50;;
56667;SDS011;42542;48.360;10.958;2023-06-10T17:34:41;9.00;;;4.80;;
56667;SDS011;42542;48.360;10.958;2023-06-10T17:37:43;7.20;;;4.07;;
56667;SDS011;42542;48.360;10.958;2023-06-10T17:40:44;7.18;;;4.30;;
56667;SDS011;42542;48.360;10.958;2023-06-10T17:43:46;7.50;;;4.00;;
56667;SDS011;42542;48.360;10.958;2023-06-10T17:46:48;7.28;;;4.13;;
56667;SDS011;42542;48.360;10.958;2023-06-10T17:49:49;7.53;;;4.43;;
56667;SDS011;42542;48.360;10.958;2023-06-10T17:52:51;7.47;;;4.30;;
56667;SDS011;42542;48.360;10.958;2023-06-10T17:55:53;7.82;;;4.40;;
56667;SDS011;42542;48.360;10.958;2023-06-10T17:58:55;7.72;;;4.47;;
56667;SDS011;42542;48.360;10.958;2023-06-10T18:01:57;9.98;;;4.70;;
56667;SDS011;42542;48.360;10.958;2023-06-10T18:04:59;7.97;;;4.57;;
56667;SDS011;42542;48.360;10.958;2023-06-10T18:08:01;7.73;;;4.63;;
56667;SDS011;42542;48.360;10.958;2023-06-10T18:11:02;7.40;;;4.43;;
56667;SDS011;42542;48.360;10.958;2023-06-10T18:14:05;8.60;;;4.85;;
56667;SDS011;42542;48.360;10.958;2023-06-10T18:17:07;8.13;;;4.75;;